Latest Weather Observations for Delamere

IDD60801

Issued at 3:35 pm CST Friday 22 August 2014 (issued every 30 minutes, with the page automatically refreshed every 10 minutes)

About weather observations | Map of weather stations | Latest weather observations for NT | Other Formats
Station Details ID: 014949 Name: DELAMERE WEAPONS RANGE Lat: -15.74 Lon: 131.92 Height: 221.0 m
Data from the previous 72 hours. | See also: Recent months at Delamere
Date/Time
CST
Temp
°C
App
Temp
°C
Dew
Point
Rel
Hum
%
Delta-T
°C
Wind Press
QNH
hPa
Press
MSL
hPa
Rain
since 9 am
mm
Dir
 
Spd
km/h
Gust
km/h
Spd
kts
Gust
kts
22/03:30pm 27.8 21.5 -4.2 12 14.1 ESE 20 35 11 19 1013.5 - 0.0
22/03:00pm 28.1 22.9 -2.9 13 14.0 SE 15 24 8 13 1013.7 1012.8 0.0
22/02:30pm 27.9 22.0 -2.0 14 13.7 SE 19 35 10 19 1014.2 - 0.0
22/02:00pm 27.7 21.6 -2.2 14 13.6 SSE 20 30 11 16 1014.7 - 0.0
22/01:30pm 26.9 20.9 -1.9 15 13.1 ESE 20 33 11 18 1015.4 - 0.0
22/01:00pm 27.0 21.0 -1.8 15 13.1 ESE 20 32 11 17 1016.0 - 0.0
22/12:30pm 26.3 19.9 -1.5 16 12.7 SE 22 33 12 18 1016.8 - 0.0
22/12:00pm 25.8 19.8 -1.9 16 12.5 SE 20 33 11 18 1017.3 1016.4 0.0
22/11:30am 25.5 19.5 -1.3 17 12.2 ESE 20 32 11 17 1018.0 - 0.0
22/11:00am 24.3 18.3 -1.5 18 11.6 ESE 20 30 11 16 1018.5 - 0.0
22/10:30am 23.9 17.9 -1.8 18 11.5 ESE 20 30 11 16 1018.8 - 0.0
22/10:00am 23.2 16.8 -1.7 19 11.1 ESE 22 30 12 16 1018.9 - 0.0
22/09:30am 22.5 16.8 -0.9 21 10.5 ESE 19 26 10 14 1019.2 - 0.0
22/09:00am 20.8 15.5 -0.5 24 9.5 ESE 17 24 9 13 1019.1 1018.1 0.0
22/08:30am 18.4 13.6 0.1 29 8.1 ESE 15 20 8 11 1018.7 - 0.0
22/08:00am 16.0 11.4 -0.7 32 7.1 SE 13 20 7 11 1018.4 - 0.0
22/07:30am 14.1 10.3 -1.1 35 6.3 ESE 9 13 5 7 1018.0 - 0.0
22/07:00am 12.8 8.6 -1.1 38 5.7 ESE 11 17 6 9 1017.8 - 0.0
22/06:30am 10.2 6.7 -1.2 45 4.5 ESE 7 11 4 6 1017.4 - 0.0
22/06:00am 9.8 6.2 -1.9 44 4.5 E 7 7 4 4 1017.0 1016.1 0.0
22/05:30am 10.5 7.1 -2.2 41 4.9 E 6 7 3 4 1016.8 - 0.0
22/05:00am 11.7 8.4 -1.4 40 5.2 ESE 6 7 3 4 1016.6 - 0.0
22/04:30am 13.2 9.7 -1.2 37 5.9 E 7 9 4 5 1016.6 - 0.0
22/04:00am 14.8 10.7 -0.5 35 6.5 SSE 11 15 6 8 1016.7 - 0.0
22/03:30am 14.0 10.1 -1.2 35 6.3 SSE 9 11 5 6 1016.8 - 0.0
22/03:00am 14.8 11.0 -0.9 34 6.6 SE 9 13 5 7 1017.1 1016.2 0.0
22/02:30am 15.2 11.8 -0.5 34 6.7 ESE 7 11 4 6 1017.3 - 0.0
22/02:00am 16.1 11.9 -0.6 32 7.1 SE 11 15 6 8 1017.5 - 0.0
22/01:30am 16.8 12.7 -0.4 31 7.4 SE 11 17 6 9 1017.6 - 0.0
22/01:00am 17.1 12.9 -0.6 30 7.6 E 11 15 6 8 1017.7 - 0.0
22/12:30am 18.3 13.5 0.0 29 8.1 SSE 15 20 8 11 1017.7 - 0.0
22/12:00am 18.0 13.6 0.2 30 7.8 SE 13 17 7 9 1017.8 1016.9 0.0
 
Date/Time
CST
Temp
°C
App
Temp
°C
Dew
Point
Rel
Hum
%
Delta-T
°C
Wind Press
QNH
hPa
Press
MSL
hPa
Rain
since 9 am
mm
Dir
 
Spd
km/h
Gust
km/h
Spd
kts
Gust
kts
21/11:30pm 18.3 14.2 0.0 29 8.1 SE 11 17 6 9 1017.8 - 0.0
21/11:00pm 18.8 14.4 0.4 29 8.2 SE 13 17 7 9 1017.8 - 0.0
21/10:30pm 19.6 14.5 0.6 28 8.6 SE 17 22 9 12 1017.7 - 0.0
21/10:00pm 20.3 15.6 0.7 27 8.9 SSE 15 26 8 14 1017.5 - 0.0
21/09:30pm 21.0 16.3 0.8 26 9.2 SSE 15 19 8 10 1017.0 - 0.0
21/09:00pm 21.6 17.0 1.3 26 9.4 SE 15 20 8 11 1016.8 1015.9 0.0
21/08:30pm 22.1 17.5 1.7 26 9.6 SSE 15 20 8 11 1016.5 - 0.0
21/08:00pm 22.7 18.6 2.2 26 9.8 SSE 13 19 7 10 1016.1 - 0.0
21/07:30pm 22.7 19.1 2.8 27 9.6 SSE 11 15 6 8 1015.7 - 0.0
21/07:00pm 24.1 20.5 2.9 25 10.3 SSE 11 15 6 8 1015.1 - 0.0
21/06:30pm 25.3 21.7 2.7 23 11.1 SE 11 15 6 8 1014.6 - 0.0
21/06:00pm 26.7 22.3 2.6 21 11.9 SSE 15 22 8 12 1014.1 1013.2 0.0
21/05:30pm 27.3 23.3 3.1 21 12.1 SSE 13 17 7 9 1013.9 - 0.0
21/05:00pm 27.5 23.5 2.6 20 12.4 SSE 13 20 7 11 1013.6 - 0.0
21/04:30pm 28.1 24.0 2.3 19 12.8 SSE 13 30 7 16 1013.4 - 0.0
21/04:00pm 28.4 23.0 2.6 19 12.9 SE 20 30 11 16 1013.6 - 0.0
21/03:30pm 27.7 22.9 2.7 20 12.4 ESE 17 24 9 13 1013.7 - 0.0
21/03:00pm 27.6 22.8 2.6 20 12.4 S 17 26 9 14 1014.2 1013.3 0.0
21/02:30pm 27.6 24.4 3.3 21 12.2 SE 9 28 5 15 1014.7 - 0.0
21/02:00pm 27.4 22.2 3.8 22 12.0 SE 20 33 11 18 1015.1 - 0.0
21/01:30pm 27.1 21.4 2.9 21 12.0 SSE 22 39 12 21 1015.8 - 0.0
21/01:00pm 26.8 21.1 2.7 21 11.9 SE 22 30 12 16 1016.2 - 0.0
21/12:30pm 26.5 21.3 2.4 21 11.8 SE 19 35 10 19 1016.8 - 0.0
21/12:00pm 26.1 19.9 2.1 21 11.7 SSE 24 39 13 21 1017.2 1016.3 0.0
21/11:30am 25.3 18.7 2.1 22 11.2 ESE 26 35 14 19 1017.5 - 0.0
21/11:00am 24.9 19.4 1.7 22 11.1 ESE 20 28 11 15 1018.2 - 0.0
21/10:30am 24.2 18.2 1.2 22 10.9 ESE 22 32 12 17 1018.5 - 0.0
21/10:00am 23.7 17.8 2.0 24 10.4 E 22 32 12 17 1018.7 - 0.0
21/09:30am 23.0 17.7 1.9 25 10.0 ESE 19 28 10 15 1018.5 - 0.0
21/09:00am 21.0 16.1 1.8 28 8.9 E 17 24 9 13 1018.2 1017.3 0.0
21/08:30am 18.9 13.9 1.4 31 8.0 ESE 17 24 9 13 1017.8 - 0.0
21/08:00am 17.2 12.5 1.2 34 7.2 ESE 15 22 8 12 1017.7 - 0.0
21/07:30am 16.0 11.3 1.0 36 6.6 ESE 15 20 8 11 1017.3 - 0.0
21/07:00am 14.5 10.9 0.4 38 6.1 ESE 9 13 5 7 1016.9 - 0.0
21/06:30am 15.7 11.4 1.1 37 6.4 ESE 13 19 7 10 1016.3 - 0.0
21/06:00am 15.6 11.7 1.3 38 6.3 SE 11 15 6 8 1016.0 1015.0 0.0
21/05:30am 15.4 11.6 1.9 40 6.0 SE 11 15 6 8 1015.8 - 0.0
21/05:00am 14.3 11.0 2.2 44 5.4 SE 9 11 5 6 1015.7 - 0.0
21/04:30am 14.4 11.4 2.0 43 5.5 E 7 9 4 5 1015.7 - 0.0
21/04:00am 15.8 12.1 2.2 40 6.1 ESE 11 13 6 7 1015.7 - 0.0
21/03:30am 16.4 12.3 2.4 39 6.4 E 13 20 7 11 1015.8 - 0.0
21/03:00am 17.2 12.9 3.1 39 6.6 SE 15 19 8 10 1015.9 1014.9 0.0
21/02:30am 16.6 12.9 2.6 39 6.4 ESE 11 15 6 8 1016.2 - 0.0
21/02:00am 17.4 13.1 3.0 38 6.7 SE 15 20 8 11 1016.3 - 0.0
21/01:30am 17.0 13.4 3.0 39 6.5 SE 11 15 6 8 1016.6 - 0.0
21/01:00am 17.4 13.8 3.0 38 6.7 SE 11 15 6 8 1016.7 - 0.0
21/12:30am 18.3 14.0 3.0 36 7.2 SE 15 20 8 11 1016.8 - 0.0
21/12:00am 18.7 14.7 2.9 35 7.4 SE 13 17 7 9 1016.9 1016.0 0.0
 
Date/Time
CST
Temp
°C
App
Temp
°C
Dew
Point
Rel
Hum
%
Delta-T
°C
Wind Press
QNH
hPa
Press
MSL
hPa
Rain
since 9 am
mm
Dir
 
Spd
km/h
Gust
km/h
Spd
kts
Gust
kts
20/11:30pm 19.4 15.1 3.2 34 7.7 SE 15 20 8 11 1016.9 - 0.0
20/11:00pm 20.1 15.7 2.9 32 8.1 SE 15 22 8 12 1016.8 - 0.0
20/10:30pm 21.1 16.4 2.9 30 8.7 SSE 17 28 9 15 1016.5 - 0.0
20/10:00pm 21.4 17.1 3.1 30 8.8 SSE 15 20 8 11 1016.4 - 0.0
20/09:30pm 21.6 17.6 2.8 29 9.0 SE 13 17 7 9 1016.4 - 0.0
20/09:00pm 21.5 18.2 2.7 29 9.0 SSE 9 13 5 7 1016.2 1015.2 0.0
20/08:30pm 22.4 18.8 3.0 28 9.4 S 11 13 6 7 1015.9 - 0.0
20/08:00pm 22.8 19.6 2.8 27 9.6 SSE 9 11 5 6 1015.5 - 0.0
20/07:30pm 23.7 20.6 3.6 27 9.9 S 9 13 5 7 1015.2 - 0.0
20/07:00pm 24.7 21.6 3.4 25 10.5 S 9 13 5 7 1014.9 - 0.0
20/06:30pm 26.1 22.7 4.0 24 11.1 S 11 15 6 8 1014.5 - 0.0
20/06:00pm 27.4 23.1 5.1 24 11.6 S 17 24 9 13 1014.2 1013.3 0.0
20/05:30pm 28.1 24.6 5.6 24 11.8 S 13 22 7 12 1014.0 - 0.0
20/05:00pm 28.9 25.5 5.7 23 12.3 S 13 20 7 11 1013.8 - 0.0
20/04:30pm 29.2 25.2 6.6 24 12.1 S 17 22 9 12 1013.6 - 0.0
20/04:00pm 29.1 25.8 6.5 24 12.1 SSW 13 22 7 12 1013.6 - 0.0
20/03:30pm 28.8 25.3 5.6 23 12.2 SSW 13 24 7 13 1013.7 - 0.0
20/03:00pm 28.9 25.3 5.1 22 12.4 SSE 13 22 7 12 1014.0 1013.1 0.0
20/02:30pm 28.3 24.0 5.2 23 12.1 SE 17 24 9 13 1014.5 - 0.0
20/02:00pm 27.9 24.3 4.9 23 11.9 SE 13 22 7 12 1015.1 - 0.0
20/01:30pm 27.5 24.6 4.5 23 11.8 S 9 19 5 10 1015.6 - 0.0
20/01:00pm 27.4 23.8 5.1 24 11.6 E 13 20 7 11 1016.2 - 0.0
20/12:30pm 26.2 22.5 4.6 25 11.0 ESE 13 28 7 15 1016.9 - 0.0
20/12:00pm 25.4 21.3 4.5 26 10.6 E 15 26 8 14 1017.4 1016.5 0.0
20/11:30am 25.3 21.3 5.0 27 10.4 E 15 24 8 13 1018.0 - 0.0
20/11:00am 24.6 19.8 4.9 28 10.0 E 19 28 10 15 1018.4 - 0.0
20/10:30am 24.1 19.2 5.0 29 9.7 E 20 30 11 16 1018.7 - 0.0
20/10:00am 22.5 16.6 4.1 30 9.1 ESE 24 32 13 17 1018.9 - 0.0
20/09:30am 21.9 17.8 4.5 32 8.6 ESE 15 20 8 11 1018.9 - 0.0
20/09:00am 20.3 15.5 4.4 35 7.7 E 19 26 10 14 1018.6 1017.7 0.0
20/08:30am 18.2 14.1 4.4 40 6.6 E 15 20 8 11 1018.5 - 0.0
20/08:00am 16.5 12.3 3.9 43 5.9 E 15 22 8 12 1018.2 - 0.0
20/07:30am 15.4 11.2 3.9 46 5.4 E 15 20 8 11 1017.8 - 0.0
20/07:00am 14.6 11.1 3.4 47 5.1 E 11 17 6 9 1017.4 - 0.0
20/06:30am 15.1 11.2 3.6 46 5.3 ESE 13 17 7 9 1017.4 - 0.0
20/06:00am 14.9 11.4 3.4 46 5.3 ESE 11 13 6 7 1017.1 1016.2 0.0
20/05:30am 14.6 11.4 3.1 46 5.2 E 9 13 5 7 1016.9 - 0.0
20/05:00am 15.1 11.9 3.0 44 5.5 E 9 13 5 7 1016.7 - 0.0
20/04:30am 15.5 11.9 3.0 43 5.7 ESE 11 15 6 8 1016.5 - 0.0
20/04:00am 16.0 12.4 3.1 42 5.9 ESE 11 13 6 7 1016.4 - 0.0
20/03:30am 16.5 12.9 2.9 40 6.3 ESE 11 15 6 8 1016.5 - 0.0
20/03:00am 16.7 13.5 3.0 40 6.3 SE 9 13 5 7 1016.6 1015.6 0.0
20/02:30am 17.2 13.6 3.1 39 6.6 SE 11 15 6 8 1016.6 - 0.0
20/02:00am 17.5 13.5 3.0 38 6.7 SE 13 17 7 9 1016.6 - 0.0
20/01:30am 18.0 13.7 3.5 38 6.8 SE 15 19 8 10 1016.6 - 0.0
20/01:00am 18.1 14.2 3.2 37 7.0 SE 13 17 7 9 1016.7 - 0.0
20/12:30am 18.4 14.0 2.7 35 7.3 SE 15 20 8 11 1016.6 - 0.0
20/12:00am 19.1 14.7 2.9 34 7.6 SSE 15 20 8 11 1016.9 1016.0 0.0
 
Date/Time
CST
Temp
°C
App
Temp
°C
Dew
Point
Rel
Hum
%
Delta-T
°C
Wind Press
QNH
hPa
Press
MSL
hPa
Rain
since 9 am
mm
Dir
 
Spd
km/h
Gust
km/h
Spd
kts
Gust
kts
19/11:30pm 19.7 15.0 3.0 33 7.9 SSE 17 22 9 12 1016.8 - 0.0
19/11:00pm 19.8 15.4 2.6 32 8.1 SSE 15 22 8 12 1016.5 - 0.0
19/10:30pm 20.0 16.2 1.9 30 8.4 SSE 11 17 6 9 1016.4 - 0.0
19/10:00pm 19.4 15.9 1.4 30 8.2 S 9 11 5 6 1016.5 - 0.0
19/09:30pm 19.8 16.3 1.3 29 8.5 S 9 11 5 6 1016.3 - 0.0
19/09:00pm 20.1 16.6 1.5 29 8.6 SSW 9 9 5 5 1016.3 1015.3 0.0
19/08:30pm 21.0 18.0 1.8 28 9.0 S 7 9 4 5 1015.9 - 0.0
19/08:00pm 21.6 18.1 1.3 26 9.4 SSW 9 11 5 6 1015.6 - 0.0
19/07:30pm 22.5 19.0 1.5 25 9.9 SSW 9 11 5 6 1015.1 - 0.0
19/07:00pm 23.7 20.8 1.4 23 10.5 SSW 6 7 3 4 1014.7 - 0.0
19/06:30pm 25.5 22.5 2.2 22 11.3 S 7 11 4 6 1014.1 - 0.0
19/06:00pm 27.1 23.9 2.9 21 12.0 SSW 9 13 5 7 1013.9 1013.0 0.0
19/05:30pm 27.6 24.1 3.3 21 12.2 S 11 17 6 9 1013.8 - 0.0
19/05:00pm 28.2 25.8 4.5 22 12.2 SE 6 15 3 8 1013.8 - 0.0
19/04:30pm 27.8 24.4 4.2 22 12.1 SSW 11 20 6 11 1013.7 - 0.0
19/04:00pm 27.9 24.5 4.2 22 12.1 S 11 20 6 11 1013.7 - 0.0

Other Formats:

Comma delimited format used in spreadsheet applications
http://www.bom.gov.au/fwo/IDD60801/IDD60801.94225.axf

JavaScript Object Notation format (JSON) in row-major order
http://www.bom.gov.au/fwo/IDD60801/IDD60801.94225.json